sensor_id;sensor_type;location;lat;lon;timestamp;pressure;altitude;pressure_sealevel;temperature;humidity
37694;BME280;23531;50.122;8.644;2023-04-23T02:01:44;99857.75;;;13.68;nan
37694;BME280;23531;50.122;8.644;2023-04-23T02:03:46;99859.88;;;13.82;nan
37694;BME280;23531;50.122;8.644;2023-04-23T02:05:49;99863.41;;;13.83;nan
37694;BME280;23531;50.122;8.644;2023-04-23T02:07:50;99861.28;;;13.85;nan
37694;BME280;23531;50.122;8.644;2023-04-23T02:09:52;99854.38;;;13.77;nan
37694;BME280;23531;50.122;8.644;2023-04-23T02:11:53;99859.78;;;13.77;nan
37694;BME280;23531;50.122;8.644;2023-04-23T02:13:56;99857.34;;;13.93;nan
37694;BME280;23531;50.122;8.644;2023-04-23T02:15:58;99861.28;;;13.85;nan
37694;BME280;23531;50.122;8.644;2023-04-23T02:18:00;99873.91;;;13.96;nan
37694;BME280;23531;50.122;8.644;2023-04-23T02:20:02;99872.84;;;13.97;nan
37694;BME280;23531;50.122;8.644;2023-04-23T02:22:02;99871.78;;;13.98;nan
37694;BME280;23531;50.122;8.644;2023-04-23T02:24:03;99864.56;;;13.87;nan
37694;BME280;23531;50.122;8.644;2023-04-23T02:26:06;99856.28;;;13.77;nan
37694;BME280;23531;50.122;8.644;2023-04-23T02:28:08;99865.41;;;13.88;nan
37694;BME280;23531;50.122;8.644;2023-04-23T02:30:12;99867.34;;;13.92;nan
37694;BME280;23531;50.122;8.644;2023-04-23T02:32:13;99865.63;;;14.03;nan
37694;BME280;23531;50.122;8.644;2023-04-23T02:34:16;99862.78;;;14.09;nan
37694;BME280;23531;50.122;8.644;2023-04-23T02:36:17;99861.47;;;13.95;nan
37694;BME280;23531;50.122;8.644;2023-04-23T02:38:18;99873.56;;;13.76;nan
37694;BME280;23531;50.122;8.644;2023-04-23T02:40:20;99865.25;;;13.66;nan
37694;BME280;23531;50.122;8.644;2023-04-23T02:42:21;99862.75;;;13.93;nan
37694;BME280;23531;50.122;8.644;2023-04-23T02:44:23;99854.06;;;13.91;nan
37694;BME280;23531;50.122;8.644;2023-04-23T02:46:24;99866.63;;;13.97;nan
37694;BME280;23531;50.122;8.644;2023-04-23T02:48:25;99863.16;;;13.85;nan
37694;BME280;23531;50.122;8.644;2023-04-23T02:50:30;99865.78;;;13.79;nan
37694;BME280;23531;50.122;8.644;2023-04-23T02:52:31;99867.25;;;13.54;nan
37694;BME280;23531;50.122;8.644;2023-04-23T02:54:31;99857.03;;;13.44;nan
37694;BME280;23531;50.122;8.644;2023-04-23T02:56:32;99859.44;;;13.57;nan
37694;BME280;23531;50.122;8.644;2023-04-23T02:58:34;99863.03;;;13.46;nan
37694;BME280;23531;50.122;8.644;2023-04-23T03:00:35;99860.00;;;13.42;nan
37694;BME280;23531;50.122;8.644;2023-04-23T03:02:37;99874.38;;;13.31;nan
37694;BME280;23531;50.122;8.644;2023-04-23T03:04:38;99875.56;;;13.24;nan
37694;BME280;23531;50.122;8.644;2023-04-23T03:06:41;99873.44;;;13.26;nan
37694;BME280;23531;50.122;8.644;2023-04-23T03:08:42;99875.13;;;13.15;nan
37694;BME280;23531;50.122;8.644;2023-04-23T03:10:43;99875.25;;;13.20;nan
37694;BME280;23531;50.122;8.644;2023-04-23T03:12:44;99872.88;;;13.24;nan
37694;BME280;23531;50.122;8.644;2023-04-23T03:14:46;99878.34;;;13.40;nan
37694;BME280;23531;50.122;8.644;2023-04-23T03:16:47;99876.84;;;13.21;nan
37694;BME280;23531;50.122;8.644;2023-04-23T03:18:48;99886.25;;;13.30;nan
37694;BME280;23531;50.122;8.644;2023-04-23T03:20:49;99884.50;;;13.53;nan
37694;BME280;23531;50.122;8.644;2023-04-23T03:22:52;99877.53;;;13.57;nan
37694;BME280;23531;50.122;8.644;2023-04-23T03:24:53;99872.78;;;13.47;nan
37694;BME280;23531;50.122;8.644;2023-04-23T03:26:55;99878.81;;;13.37;nan
37694;BME280;23531;50.122;8.644;2023-04-23T03:28:56;99881.50;;;13.37;nan
37694;BME280;23531;50.122;8.644;2023-04-23T03:30:57;99885.25;;;13.36;nan
37694;BME280;23531;50.122;8.644;2023-04-23T03:32:59;99882.38;;;13.26;nan
37694;BME280;23531;50.122;8.644;2023-04-23T03:35:01;99883.28;;;13.32;nan
37694;BME280;23531;50.122;8.644;2023-04-23T03:37:02;99883.91;;;13.22;nan
37694;BME280;23531;50.122;8.644;2023-04-23T03:39:05;99876.38;;;13.24;nan
37694;BME280;23531;50.122;8.644;2023-04-23T03:41:06;99870.31;;;13.17;nan
37694;BME280;23531;50.122;8.644;2023-04-23T03:43:09;99871.47;;;13.21;nan
37694;BME280;23531;50.122;8.644;2023-04-23T03:45:11;99877.31;;;13.30;nan
37694;BME280;23531;50.122;8.644;2023-04-23T03:47:13;99877.44;;;13.23;nan
37694;BME280;23531;50.122;8.644;2023-04-23T03:49:14;99875.72;;;13.17;nan
37694;BME280;23531;50.122;8.644;2023-04-23T03:51:15;99879.47;;;13.16;nan
37694;BME280;23531;50.122;8.644;2023-04-23T03:53:17;99877.94;;;13.20;nan
37694;BME280;23531;50.122;8.644;2023-04-23T03:55:19;99877.09;;;13.31;nan
37694;BME280;23531;50.122;8.644;2023-04-23T03:57:21;99879.97;;;13.41;nan
37694;BME280;23531;50.122;8.644;2023-04-23T03:59:22;99879.03;;;13.36;nan
37694;BME280;23531;50.122;8.644;2023-04-23T04:01:23;99873.00;;;13.45;nan
37694;BME280;23531;50.122;8.644;2023-04-23T04:03:24;99867.03;;;13.43;nan
37694;BME280;23531;50.122;8.644;2023-04-23T04:05:26;99868.28;;;13.24;nan
37694;BME280;23531;50.122;8.644;2023-04-23T04:07:27;99875.69;;;13.29;nan
37694;BME280;23531;50.122;8.644;2023-04-23T04:09:29;99877.56;;;13.28;nan
37694;BME280;23531;50.122;8.644;2023-04-23T04:11:31;99873.94;;;13.23;nan
37694;BME280;23531;50.122;8.644;2023-04-23T04:13:32;99870.78;;;13.14;nan
37694;BME280;23531;50.122;8.644;2023-04-23T04:15:34;99879.09;;;13.24;nan
37694;BME280;23531;50.122;8.644;2023-04-23T04:17:35;99886.44;;;13.40;nan
37694;BME280;23531;50.122;8.644;2023-04-23T04:19:36;99882.16;;;13.44;nan
37694;BME280;23531;50.122;8.644;2023-04-23T04:21:38;99874.66;;;13.47;nan
37694;BME280;23531;50.122;8.644;2023-04-23T04:23:39;99874.81;;;13.40;nan
37694;BME280;23531;50.122;8.644;2023-04-23T04:25:40;99876.81;;;13.33;nan
37694;BME280;23531;50.122;8.644;2023-04-23T04:27:43;99882.03;;;13.51;nan
37694;BME280;23531;50.122;8.644;2023-04-23T04:29:44;99876.56;;;13.63;nan
37694;BME280;23531;50.122;8.644;2023-04-23T04:31:47;99873.53;;;13.59;nan
37694;BME280;23531;50.122;8.644;2023-04-23T04:33:48;99872.28;;;13.50;nan
37694;BME280;23531;50.122;8.644;2023-04-23T04:35:50;99875.06;;;13.55;nan
37694;BME280;23531;50.122;8.644;2023-04-23T04:37:51;99876.34;;;13.64;nan
37694;BME280;23531;50.122;8.644;2023-04-23T04:39:53;99884.94;;;13.78;nan
37694;BME280;23531;50.122;8.644;2023-04-23T04:41:54;99884.28;;;13.71;nan
37694;BME280;23531;50.122;8.644;2023-04-23T04:43:57;99885.69;;;13.73;nan
37694;BME280;23531;50.122;8.644;2023-04-23T04:45:59;99889.09;;;13.69;nan
37694;BME280;23531;50.122;8.644;2023-04-23T04:48:00;99890.41;;;13.66;nan
37694;BME280;23531;50.122;8.644;2023-04-23T04:50:01;99888.34;;;13.57;nan
37694;BME280;23531;50.122;8.644;2023-04-23T04:52:03;99890.16;;;13.68;nan
37694;BME280;23531;50.122;8.644;2023-04-23T04:54:04;99897.31;;;13.74;nan
37694;BME280;23531;50.122;8.644;2023-04-23T04:56:06;99892.59;;;13.53;nan
37694;BME280;23531;50.122;8.644;2023-04-23T04:58:07;99902.25;;;13.49;nan
37694;BME280;23531;50.122;8.644;2023-04-23T05:00:21;99895.81;;;13.38;nan
37694;BME280;23531;50.122;8.644;2023-04-23T05:02:22;99888.75;;;13.49;nan
37694;BME280;23531;50.122;8.644;2023-04-23T05:04:25;99881.41;;;13.61;nan
37694;BME280;23531;50.122;8.644;2023-04-23T05:06:26;99877.53;;;13.57;nan
37694;BME280;23531;50.122;8.644;2023-04-23T05:08:28;99888.31;;;13.40;nan
37694;BME280;23531;50.122;8.644;2023-04-23T05:10:29;99883.53;;;13.30;nan
37694;BME280;23531;50.122;8.644;2023-04-23T05:12:31;99884.09;;;13.32;nan
37694;BME280;23531;50.122;8.644;2023-04-23T05:14:32;99891.44;;;13.20;nan
37694;BME280;23531;50.122;8.644;2023-04-23T05:16:35;99888.16;;;13.18;nan
37694;BME280;23531;50.122;8.644;2023-04-23T05:18:36;99892.38;;;13.14;nan
37694;BME280;23531;50.122;8.644;2023-04-23T05:20:37;99891.34;;;13.15;nan
37694;BME280;23531;50.122;8.644;2023-04-23T05:22:39;99886.41;;;13.00;nan
37694;BME280;23531;50.122;8.644;2023-04-23T05:24:41;99893.78;;;13.05;nan
37694;BME280;23531;50.122;8.644;2023-04-23T05:26:42;99892.94;;;13.28;nan
37694;BME280;23531;50.122;8.644;2023-04-23T05:28:43;99901.19;;;13.50;nan
37694;BME280;23531;50.122;8.644;2023-04-23T05:30:44;99895.41;;;13.29;nan
37694;BME280;23531;50.122;8.644;2023-04-23T05:32:47;99888.19;;;13.35;nan
37694;BME280;23531;50.122;8.644;2023-04-23T05:34:48;99894.56;;;13.29;nan
37694;BME280;23531;50.122;8.644;2023-04-23T05:36:50;99892.31;;;13.37;nan
37694;BME280;23531;50.122;8.644;2023-04-23T05:38:51;99892.19;;;13.32;nan
37694;BME280;23531;50.122;8.644;2023-04-23T05:40:52;99888.06;;;13.41;nan
37694;BME280;23531;50.122;8.644;2023-04-23T05:42:54;99890.31;;;13.33;nan
37694;BME280;23531;50.122;8.644;2023-04-23T05:44:55;99905.38;;;13.29;nan
37694;BME280;23531;50.122;8.644;2023-04-23T05:46:57;99902.13;;;13.15;nan
37694;BME280;23531;50.122;8.644;2023-04-23T05:48:59;99906.81;;;13.08;nan
37694;BME280;23531;50.122;8.644;2023-04-23T05:51:00;99898.97;;;13.18;nan
37694;BME280;23531;50.122;8.644;2023-04-23T05:53:03;99906.09;;;13.13;nan
37694;BME280;23531;50.122;8.644;2023-04-23T05:55:05;99907.72;;;13.25;nan
37694;BME280;23531;50.122;8.644;2023-04-23T05:57:06;99909.31;;;13.38;nan
37694;BME280;23531;50.122;8.644;2023-04-23T05:59:08;99909.22;;;13.33;nan
37694;BME280;23531;50.122;8.644;2023-04-23T06:01:09;99909.31;;;13.38;nan
37694;BME280;23531;50.122;8.644;2023-04-23T06:03:11;99916.84;;;13.36;nan
37694;BME280;23531;50.122;8.644;2023-04-23T06:05:14;99915.19;;;13.35;nan
37694;BME280;23531;50.122;8.644;2023-04-23T06:07:16;99909.44;;;13.43;nan
37694;BME280;23531;50.122;8.644;2023-04-23T06:09:17;99911.81;;;13.56;nan
37694;BME280;23531;50.122;8.644;2023-04-23T06:11:18;99905.59;;;13.84;nan
37694;BME280;23531;50.122;8.644;2023-04-23T06:13:20;99910.56;;;13.75;nan
37694;BME280;23531;50.122;8.644;2023-04-23T06:15:21;99910.09;;;13.95;nan
37694;BME280;23531;50.122;8.644;2023-04-23T06:17:25;99916.25;;;14.24;nan
37694;BME280;23531;50.122;8.644;2023-04-23T06:19:27;99905.88;;;14.33;nan
37694;BME280;23531;50.122;8.644;2023-04-23T06:21:29;99902.06;;;14.34;nan
37694;BME280;23531;50.122;8.644;2023-04-23T06:23:31;99911.44;;;14.43;nan
37694;BME280;23531;50.122;8.644;2023-04-23T06:25:33;99905.44;;;14.24;nan
37694;BME280;23531;50.122;8.644;2023-04-23T06:27:34;99906.84;;;14.27;nan
37694;BME280;23531;50.122;8.644;2023-04-23T06:29:35;99907.41;;;14.29;nan
37694;BME280;23531;50.122;8.644;2023-04-23T06:31:36;99902.56;;;14.31;nan
37694;BME280;23531;50.122;8.644;2023-04-23T06:33:38;99898.97;;;14.08;nan
37694;BME280;23531;50.122;8.644;2023-04-23T06:35:40;99902.31;;;14.15;nan
37694;BME280;23531;50.122;8.644;2023-04-23T06:37:42;99904.63;;;14.24;nan
37694;BME280;23531;50.122;8.644;2023-04-23T06:39:43;99898.81;;;14.32;nan
37694;BME280;23531;50.122;8.644;2023-04-23T06:41:45;99903.41;;;14.31;nan
37694;BME280;23531;50.122;8.644;2023-04-23T06:43:46;99904.53;;;14.35;nan
37694;BME280;23531;50.122;8.644;2023-04-23T06:45:48;99905.13;;;14.54;nan
37694;BME280;23531;50.122;8.644;2023-04-23T06:47:49;99909.97;;;14.52;nan
37694;BME280;23531;50.122;8.644;2023-04-23T06:49:50;99913.91;;;14.44;nan
37694;BME280;23531;50.122;8.644;2023-04-23T06:51:51;99912.00;;;14.45;nan
37694;BME280;23531;50.122;8.644;2023-04-23T06:53:54;99917.50;;;14.50;nan
37694;BME280;23531;50.122;8.644;2023-04-23T06:55:55;99919.03;;;14.63;nan
37694;BME280;23531;50.122;8.644;2023-04-23T06:57:57;99911.88;;;14.73;nan
37694;BME280;23531;50.122;8.644;2023-04-23T06:59:58;99905.63;;;14.51;nan
37694;BME280;23531;50.122;8.644;2023-04-23T07:01:59;99907.41;;;14.45;nan
37694;BME280;23531;50.122;8.644;2023-04-23T07:04:00;99908.94;;;14.58;nan
37694;BME280;23531;50.122;8.644;2023-04-23T07:06:02;99913.19;;;14.71;nan
37694;BME280;23531;50.122;8.644;2023-04-23T07:08:03;99901.88;;;14.74;nan
37694;BME280;23531;50.122;8.644;2023-04-23T07:10:07;99887.88;;;14.60;nan
37694;BME280;23531;50.122;8.644;2023-04-23T07:12:08;99890.53;;;14.55;nan
37694;BME280;23531;50.122;8.644;2023-04-23T07:14:09;99880.47;;;14.72;nan
37694;BME280;23531;50.122;8.644;2023-04-23T07:16:11;99888.09;;;14.75;nan
37694;BME280;23531;50.122;8.644;2023-04-23T07:18:12;99887.06;;;14.98;nan
37694;BME280;23531;50.122;8.644;2023-04-23T07:20:13;99863.91;;;15.12;nan
37694;BME280;23531;50.122;8.644;2023-04-23T07:22:14;99875.63;;;15.18;nan
37694;BME280;23531;50.122;8.644;2023-04-23T07:24:16;99869.59;;;15.11;nan
37694;BME280;23531;50.122;8.644;2023-04-23T07:26:19;99877.97;;;15.09;nan
37694;BME280;23531;50.122;8.644;2023-04-23T07:28:20;99866.94;;;15.16;nan
37694;BME280;23531;50.122;8.644;2023-04-23T07:30:21;99862.28;;;15.33;nan
37694;BME280;23531;50.122;8.644;2023-04-23T07:32:23;99872.53;;;15.31;nan
37694;BME280;23531;50.122;8.644;2023-04-23T07:34:26;99873.28;;;15.26;nan
37694;BME280;23531;50.122;8.644;2023-04-23T07:36:28;99882.00;;;15.29;nan
37694;BME280;23531;50.122;8.644;2023-04-23T07:38:30;99881.91;;;15.45;nan
37694;BME280;23531;50.122;8.644;2023-04-23T07:40:31;99889.56;;;15.53;nan
37694;BME280;23531;50.122;8.644;2023-04-23T07:42:34;99885.81;;;15.54;nan
37694;BME280;23531;50.122;8.644;2023-04-23T07:44:35;99881.63;;;15.47;nan
37694;BME280;23531;50.122;8.644;2023-04-23T07:46:36;99879.75;;;15.47;nan
37694;BME280;23531;50.122;8.644;2023-04-23T07:48:38;99875.97;;;15.48;nan
37694;BME280;23531;50.122;8.644;2023-04-23T07:50:39;99880.78;;;15.95;nan
37694;BME280;23531;50.122;8.644;2023-04-23T07:52:40;99881.16;;;15.77;nan
37694;BME280;23531;50.122;8.644;2023-04-23T07:54:41;99879.91;;;15.57;nan
37694;BME280;23531;50.122;8.644;2023-04-23T07:56:43;99874.50;;;15.63;nan
37694;BME280;23531;50.122;8.644;2023-04-23T07:58:46;99874.75;;;15.88;nan
37694;BME280;23531;50.122;8.644;2023-04-23T08:00:47;99879.53;;;15.76;nan
37694;BME280;23531;50.122;8.644;2023-04-23T08:02:48;99883.78;;;15.67;nan
37694;BME280;23531;50.122;8.644;2023-04-23T08:04:50;99873.94;;;15.60;nan
37694;BME280;23531;50.122;8.644;2023-04-23T08:06:51;99876.22;;;15.47;nan
37694;BME280;23531;50.122;8.644;2023-04-23T08:08:53;99872.16;;;15.71;nan
37694;BME280;23531;50.122;8.644;2023-04-23T08:10:55;99873.53;;;15.74;nan
37694;BME280;23531;50.122;8.644;2023-04-23T08:12:56;99870.47;;;15.65;nan
37694;BME280;23531;50.122;8.644;2023-04-23T08:14:59;99871.22;;;15.55;nan
37694;BME280;23531;50.122;8.644;2023-04-23T08:17:00;99864.06;;;15.49;nan
37694;BME280;23531;50.122;8.644;2023-04-23T08:19:01;99866.84;;;15.54;nan
37694;BME280;23531;50.122;8.644;2023-04-23T08:21:04;99860.38;;;15.55;nan
37694;BME280;23531;50.122;8.644;2023-04-23T08:23:05;99861.34;;;15.49;nan
37694;BME280;23531;50.122;8.644;2023-04-23T08:25:06;99861.81;;;15.41;nan
37694;BME280;23531;50.122;8.644;2023-04-23T08:27:08;99861.38;;;15.27;nan
37694;BME280;23531;50.122;8.644;2023-04-23T08:29:09;99855.94;;;15.22;nan
37694;BME280;23531;50.122;8.644;2023-04-23T08:31:12;99858.53;;;15.39;nan
37694;BME280;23531;50.122;8.644;2023-04-23T08:33:14;99860.09;;;15.35;nan
37694;BME280;23531;50.122;8.644;2023-04-23T08:35:15;99850.91;;;15.36;nan
37694;BME280;23531;50.122;8.644;2023-04-23T08:37:16;99846.13;;;15.43;nan
37694;BME280;23531;50.122;8.644;2023-04-23T08:39:18;99845.47;;;15.58;nan
37694;BME280;23531;50.122;8.644;2023-04-23T08:41:20;99848.81;;;15.65;nan
37694;BME280;23531;50.122;8.644;2023-04-23T08:43:24;99852.41;;;15.76;nan
37694;BME280;23531;50.122;8.644;2023-04-23T08:45:27;99847.91;;;15.59;nan
37694;BME280;23531;50.122;8.644;2023-04-23T08:47:30;99843.69;;;15.69;nan
37694;BME280;23531;50.122;8.644;2023-04-23T08:49:32;99846.34;;;15.64;nan
37694;BME280;23531;50.122;8.644;2023-04-23T08:51:35;99845.63;;;15.73;nan
37694;BME280;23531;50.122;8.644;2023-04-23T08:53:38;99848.63;;;15.77;nan
37694;BME280;23531;50.122;8.644;2023-04-23T08:55:40;99843.25;;;15.82;nan
37694;BME280;23531;50.122;8.644;2023-04-23T08:57:42;99838.91;;;15.81;nan
37694;BME280;23531;50.122;8.644;2023-04-23T08:59:43;99842.16;;;15.83;nan
37694;BME280;23531;50.122;8.644;2023-04-23T09:01:45;99835.66;;;15.84;nan
37694;BME280;23531;50.122;8.644;2023-04-23T09:03:47;99835.91;;;15.77;nan
37694;BME280;23531;50.122;8.644;2023-04-23T09:05:49;99834.28;;;15.81;nan
37694;BME280;23531;50.122;8.644;2023-04-23T09:07:52;99832.78;;;15.95;nan
37694;BME280;23531;50.122;8.644;2023-04-23T09:09:53;99824.41;;;15.97;nan
37694;BME280;23531;50.122;8.644;2023-04-23T09:11:55;99823.91;;;16.05;nan
37694;BME280;23531;50.122;8.644;2023-04-23T09:13:56;99822.97;;;16.26;nan
37694;BME280;23531;50.122;8.644;2023-04-23T09:15:58;99818.72;;;16.41;nan
37694;BME280;23531;50.122;8.644;2023-04-23T09:17:59;99813.88;;;16.48;nan
37694;BME280;23531;50.122;8.644;2023-04-23T09:20:03;99817.00;;;16.66;nan
37694;BME280;23531;50.122;8.644;2023-04-23T09:22:05;99813.75;;;16.69;nan
37694;BME280;23531;50.122;8.644;2023-04-23T09:24:08;99813.13;;;16.57;nan
37694;BME280;23531;50.122;8.644;2023-04-23T09:26:11;99813.47;;;16.66;nan
37694;BME280;23531;50.122;8.644;2023-04-23T09:28:19;99806.16;;;16.77;nan
37694;BME280;23531;50.122;8.644;2023-04-23T09:30:20;99809.13;;;16.70;nan
37694;BME280;23531;50.122;8.644;2023-04-23T09:32:29;99809.44;;;16.79;nan
37694;BME280;23531;50.122;8.644;2023-04-23T09:34:33;99803.22;;;16.88;nan
37694;BME280;23531;50.122;8.644;2023-04-23T09:36:36;99798.94;;;17.02;nan
37694;BME280;23531;50.122;8.644;2023-04-23T09:38:38;99798.66;;;17.04;nan
37694;BME280;23531;50.122;8.644;2023-04-23T09:40:41;99793.25;;;17.04;nan
37694;BME280;23531;50.122;8.644;2023-04-23T09:42:46;99783.97;;;16.90;nan
37694;BME280;23531;50.122;8.644;2023-04-23T09:44:49;99784.16;;;16.73;nan
37694;BME280;23531;50.122;8.644;2023-04-23T09:46:55;99784.16;;;16.73;nan
37694;BME280;23531;50.122;8.644;2023-04-23T09:48:57;99788.53;;;16.79;nan
37694;BME280;23531;50.122;8.644;2023-04-23T09:50:58;99789.88;;;16.77;nan
37694;BME280;23531;50.122;8.644;2023-04-23T09:53:03;99789.09;;;16.81;nan
37694;BME280;23531;50.122;8.644;2023-04-23T09:55:05;99784.19;;;16.83;nan
37694;BME280;23531;50.122;8.644;2023-04-23T09:57:06;99779.59;;;16.94;nan
37694;BME280;23531;50.122;8.644;2023-04-23T09:59:20;99773.91;;;16.95;nan
37694;BME280;23531;50.122;8.644;2023-04-23T10:01:26;99780.44;;;16.89;nan
37694;BME280;23531;50.122;8.644;2023-04-23T10:03:27;99778.16;;;16.71;nan
37694;BME280;23531;50.122;8.644;2023-04-23T10:05:29;99775.44;;;16.71;nan
37694;BME280;23531;50.122;8.644;2023-04-23T10:07:31;99778.47;;;16.69;nan
37694;BME280;23531;50.122;8.644;2023-04-23T10:09:34;99768.97;;;16.82;nan
37694;BME280;23531;50.122;8.644;2023-04-23T10:11:35;99767.09;;;16.83;nan
37694;BME280;23531;50.122;8.644;2023-04-23T10:13:37;99771.69;;;16.77;nan
37694;BME280;23531;50.122;8.644;2023-04-23T10:15:38;99769.50;;;16.74;nan
37694;BME280;23531;50.122;8.644;2023-04-23T10:17:40;99774.41;;;16.77;nan
37694;BME280;23531;50.122;8.644;2023-04-23T10:19:41;99769.84;;;16.93;nan
37694;BME280;23531;50.122;8.644;2023-04-23T10:21:42;99772.25;;;16.79;nan
37694;BME280;23531;50.122;8.644;2023-04-23T10:23:44;99763.53;;;16.82;nan
37694;BME280;23531;50.122;8.644;2023-04-23T10:25:48;99765.22;;;16.98;nan
37694;BME280;23531;50.122;8.644;2023-04-23T10:27:50;99772.31;;;17.10;nan
37694;BME280;23531;50.122;8.644;2023-04-23T10:29:52;99760.91;;;17.08;nan
37694;BME280;23531;50.122;8.644;2023-04-23T10:31:54;99763.91;;;17.11;nan
37694;BME280;23531;50.122;8.644;2023-04-23T10:33:56;99766.09;;;17.14;nan
37694;BME280;23531;50.122;8.644;2023-04-23T10:35:58;99765.53;;;17.17;nan
37694;BME280;23531;50.122;8.644;2023-04-23T10:38:00;99772.06;;;17.21;nan
37694;BME280;23531;50.122;8.644;2023-04-23T10:40:03;99768.56;;;17.26;nan
37694;BME280;23531;50.122;8.644;2023-04-23T10:42:09;99764.22;;;17.25;nan
37694;BME280;23531;50.122;8.644;2023-04-23T10:44:12;99764.72;;;17.27;nan
37694;BME280;23531;50.122;8.644;2023-04-23T10:46:28;99764.72;;;17.27;nan
37694;BME280;23531;50.122;8.644;2023-04-23T10:48:35;99760.13;;;17.22;nan
37694;BME280;23531;50.122;8.644;2023-04-23T10:50:56;99754.94;;;17.16;nan
37694;BME280;23531;50.122;8.644;2023-04-23T10:52:57;99748.97;;;17.29;nan
37694;BME280;23531;50.122;8.644;2023-04-23T10:54:58;99751.16;;;17.32;nan
37694;BME280;23531;50.122;8.644;2023-04-23T10:57:00;99748.72;;;17.40;nan
37694;BME280;23531;50.122;8.644;2023-04-23T10:59:03;99738.41;;;17.42;nan
37694;BME280;23531;50.122;8.644;2023-04-23T11:01:05;99750.09;;;17.48;nan
37694;BME280;23531;50.122;8.644;2023-04-23T11:03:20;99736.75;;;17.52;nan
37694;BME280;23531;50.122;8.644;2023-04-23T11:05:26;99729.72;;;17.46;nan
37694;BME280;23531;50.122;8.644;2023-04-23T11:07:29;99726.72;;;17.47;nan
37694;BME280;23531;50.122;8.644;2023-04-23T11:09:31;99727.81;;;17.56;nan
37694;BME280;23531;50.122;8.644;2023-04-23T11:11:39;99723.47;;;17.70;nan
37694;BME280;23531;50.122;8.644;2023-04-23T11:13:49;99713.13;;;17.77;nan
37694;BME280;23531;50.122;8.644;2023-04-23T11:18:12;99714.22;;;17.82;nan
37694;BME280;23531;50.122;8.644;2023-04-23T11:20:14;99714.72;;;17.84;nan
37694;BME280;23531;50.122;8.644;2023-04-23T11:22:16;99711.22;;;17.83;nan
37694;BME280;23531;50.122;8.644;2023-04-23T11:24:18;99706.31;;;17.75;nan
37694;BME280;23531;50.122;8.644;2023-04-23T11:26:19;99707.16;;;17.60;nan
37694;BME280;23531;50.122;8.644;2023-04-23T11:28:21;99691.66;;;17.66;nan
37694;BME280;23531;50.122;8.644;2023-04-23T11:30:23;99691.38;;;17.72;nan
37694;BME280;23531;50.122;8.644;2023-04-23T11:32:26;99696.56;;;17.69;nan
37694;BME280;23531;50.122;8.644;2023-04-23T11:34:29;99690.56;;;17.67;nan
37694;BME280;23531;50.122;8.644;2023-04-23T11:36:30;99690.84;;;17.70;nan
37694;BME280;23531;50.122;8.644;2023-04-23T11:38:32;99689.50;;;17.68;nan
37694;BME280;23531;50.122;8.644;2023-04-23T11:40:33;99684.59;;;17.60;nan
37694;BME280;23531;50.122;8.644;2023-04-23T11:42:39;99679.44;;;17.48;nan
37694;BME280;23531;50.122;8.644;2023-04-23T11:44:41;99678.06;;;17.40;nan
37694;BME280;23531;50.122;8.644;2023-04-23T11:46:42;99684.56;;;17.39;nan
37694;BME280;23531;50.122;8.644;2023-04-23T11:48:47;99676.44;;;17.45;nan
37694;BME280;23531;50.122;8.644;2023-04-23T11:50:49;99678.88;;;17.46;nan
37694;BME280;23531;50.122;8.644;2023-04-23T11:52:52;99677.81;;;17.47;nan
37694;BME280;23531;50.122;8.644;2023-04-23T11:54:54;99681.03;;;17.54;nan
37694;BME280;23531;50.122;8.644;2023-04-23T11:56:55;99670.44;;;17.63;nan
37694;BME280;23531;50.122;8.644;2023-04-23T11:58:58;99674.53;;;17.70;nan
37694;BME280;23531;50.122;8.644;2023-04-23T12:01:02;99680.47;;;17.62;nan
37694;BME280;23531;50.122;8.644;2023-04-23T12:03:04;99682.13;;;17.73;nan
37694;BME280;23531;50.122;8.644;2023-04-23T12:05:07;99669.63;;;17.67;nan
37694;BME280;23531;50.122;8.644;2023-04-23T12:07:10;99675.03;;;17.62;nan
37694;BME280;23531;50.122;8.644;2023-04-23T12:09:12;99660.41;;;17.68;nan
37694;BME280;23531;50.122;8.644;2023-04-23T12:11:13;99658.19;;;17.81;nan
37694;BME280;23531;50.122;8.644;2023-04-23T12:13:15;99656.22;;;18.01;nan
37694;BME280;23531;50.122;8.644;2023-04-23T12:15:17;99649.16;;;18.00;nan
37694;BME280;23531;50.122;8.644;2023-04-23T12:17:18;99639.63;;;18.03;nan
37694;BME280;23531;50.122;8.644;2023-04-23T12:19:20;99631.25;;;17.84;nan
37694;BME280;23531;50.122;8.644;2023-04-23T12:21:21;99627.19;;;17.82;nan
37694;BME280;23531;50.122;8.644;2023-04-23T12:23:27;99633.41;;;17.87;nan
37694;BME280;23531;50.122;8.644;2023-04-23T12:25:28;99638.28;;;17.95;nan
37694;BME280;23531;50.122;8.644;2023-04-23T12:27:30;99642.63;;;18.01;nan
37694;BME280;23531;50.122;8.644;2023-04-23T12:29:32;99649.16;;;18.00;nan
37694;BME280;23531;50.122;8.644;2023-04-23T12:31:35;99640.75;;;17.92;nan
37694;BME280;23531;50.122;8.644;2023-04-23T12:33:37;99644.03;;;17.89;nan
37694;BME280;23531;50.122;8.644;2023-04-23T12:35:39;99637.81;;;17.83;nan
37694;BME280;23531;50.122;8.644;2023-04-23T12:37:40;99635.03;;;17.93;nan
37694;BME280;23531;50.122;8.644;2023-04-23T12:39:43;99635.81;;;18.04;nan
37694;BME280;23531;50.122;8.644;2023-04-23T12:41:44;99624.94;;;18.04;nan
37694;BME280;23531;50.122;8.644;2023-04-23T12:43:45;99619.22;;;18.00;nan
37694;BME280;23531;50.122;8.644;2023-04-23T12:45:49;99619.00;;;17.92;nan
37694;BME280;23531;50.122;8.644;2023-04-23T12:47:51;99607.91;;;17.78;nan
37694;BME280;23531;50.122;8.644;2023-04-23T12:49:52;99604.88;;;17.90;nan
37694;BME280;23531;50.122;8.644;2023-04-23T12:51:54;99591.00;;;17.91;nan
37694;BME280;23531;50.122;8.644;2023-04-23T12:53:59;99587.44;;;17.91;nan
37694;BME280;23531;50.122;8.644;2023-04-23T12:56:02;99580.94;;;17.92;nan
37694;BME280;23531;50.122;8.644;2023-04-23T12:58:04;99583.06;;;17.95;nan
37694;BME280;23531;50.122;8.644;2023-04-23T13:00:05;99581.38;;;18.09;nan
37694;BME280;23531;50.122;8.644;2023-04-23T13:02:08;99579.41;;;18.20;nan
37694;BME280;23531;50.122;8.644;2023-04-23T13:04:09;99575.09;;;18.13;nan
37694;BME280;23531;50.122;8.644;2023-04-23T13:06:10;99568.53;;;18.20;nan
37694;BME280;23531;50.122;8.644;2023-04-23T13:08:11;99561.22;;;18.15;nan